Lima, MT (59739)

3:13 PM MDT on October 25, 2014 (GMT -0600)
Dillon | Change Station
CLOSE
Current Station
Airport
Location: Dillon,
Elevation: 5240 ft
Nearby Weather Stations

Elev 5240 ft 45.26 °N, 112.55 °W | Updated 20 minutes ago

Clear
Clear
70 °F
Feels Like 70 °F
N
23
Wind Variable Wind from South
Gusts 38 mph

Today
High -- | Low -- °F
--% Chance of Precip.
Yesterday
High -- | Low -- °F
Precip. -- in
7:57 AM 6:28 PM
Waxing Crescent, 4% visible
Pressure 29.73 in
Visibility 10.0 miles
Clouds Clear
Dew Point 28 °F
Humidity 21%
Rainfall 0.00 in
Snow Depth Not available.
UV 3 out of 12
Pollen 2.20 out of 12
Air Quality Not available.
Flu Activity No Activity
METAR KDLN 252053Z AUTO 17020G33KT 10SM CLR 21/M02 A2982 RMK AO2 PK WND 18033/2048 WSHFT 2020 SLP065 T02111022 56038

More Conditions Fewer Conditions

Pressure 29.73 in
Visibility 10.0 miles
Clouds Clear
Dew Point 28 °F
Humidity 21%
Rainfall 0.00 in
Snow Depth Not available.
UV 3 out of 12
Pollen 2.20 out of 12
Air Quality Not available.
Flu Activity No Activity
METAR KDLN 252053Z AUTO 17020G33KT 10SM CLR 21/M02 A2982 RMK AO2 PK WND 18033/2048 WSHFT 2020 SLP065 T02111022 56038

More Conditions Fewer Conditions

10-Day Weather Forecast

Almanac

Astronomy

Oct. 25, 2014 Rise Set
Actual Time 7:57 AM MDT 6:28 PM MDT
Civil Twilight 7:27 AM MDT 6:58 PM MDT
Nautical Twilight 6:53 AM MDT 7:32 PM MDT
Astronomical Twilight 6:19 AM MDT 8:06 PM MDT
Moon 9:43 AM MDT 7:50 PM MDT
Length of Visible Light 11h 30m
Length of Day
10h 30m
Tomorrow will be 2m 52s shorter.
Waxing Crescent, 4% of the Moon is Illuminated
Today
Waxing Crescent
Oct 30
First Quarter
Nov 6
Full
Nov 14
Last Quarter
Nov 22
New

Today's Extremes

State Highs State Lows

Community

WunderPhotos

Upload Photos

1,764,997 photos uploaded!

Nearby

Snow Depth

Station Depth Elevation
Short Creek 0 in 7000 ft
Carrot Basin 0 in 9000 ft
Mule Creek 0 in 8300 ft
Darkhorse Lake 5 in 8700 ft
Shower Falls 0 in 8100 ft

Earthquake Activity

City Distance Mag. Time & Date
No recent earthquake activity has been reported nearby.
Minimum magnitude displayed is 2.5.

Coastal Water Temperatures

Place Temperature
No Stations Reporting

Nearby Weather Stations